Observation data for Muleshoe on 02/14/2020      Previous  Date  Next       Current Mesonet Observations  Soil Data  Daily Summary Page  Observations in Plain Language
KMUS 140600Z 13015G20KT M01/M02 A3023 RMK A01 T10131021  RH  095%=      5-min Rain = 0
KMUS 140605Z 14013G18KT M01/M02 A3023 RMK A01 T10131021  RH  095%=      5-min Rain = 0
KMUS 140610Z 13015KT M01/M02 A3023 RMK A01 T10141021  RH  095%=      5-min Rain = 0
KMUS 140615Z 13012KT M01/M02 A3024 RMK A01 T10141021  RH  096%=      5-min Rain = 0
KMUS 140620Z 13011KT M01/M02 A3024 RMK A01 T10141021  RH  096%=      5-min Rain = 0
KMUS 140625Z 13010KT M01/M02 A3024 RMK A01 T10141021  RH  096%=      5-min Rain = 0
KMUS 140630Z 14012KT M01/M02 A3024 RMK A01 T10141020  RH  096%=      5-min Rain = 0
KMUS 140635Z 14011KT M01/M02 A3024 RMK A01 T10141020  RH  097%=      5-min Rain = 0
KMUS 140640Z 14009KT M01/M02 A3024 RMK A01 T10141020  RH  097%=      5-min Rain = 0
KMUS 140645Z 14011G16KT M02/M02 A3024 RMK A01 T10151020  RH  097%=      5-min Rain = 0
KMUS 140650Z 14012KT M02/M02 A3024 RMK A01 T10151021  RH  097%=      5-min Rain = 0
KMUS 140655Z 14012KT M02/M02 A3024 RMK A01 T10161022  RH  097%=      5-min Rain = 0
KMUS 140700Z 13011KT M02/M02 A3024 RMK A01 T10171022  RH  097%=      5-min Rain = 0
KMUS 140705Z 14014G20KT M02/M02 A3024 RMK A01 T10171022  RH  097%=      5-min Rain = 0
KMUS 140710Z 15013G19KT M02/M02 A3025 RMK A01 T10181024  RH  097%=      5-min Rain = 0
KMUS 140715Z 15012G18KT M02/M02 A3024 RMK A01 T10191024  RH  097%=      5-min Rain = 0
KMUS 140720Z 14014KT M02/M03 A3024 RMK A01 T10201025  RH  097%=      5-min Rain = 0
KMUS 140725Z 15011KT M02/M02 A3025 RMK A01 T10201024  RH  097%=      5-min Rain = 0
KMUS 140730Z 15012KT M02/M02 A3025 RMK A01 T10201024  RH  098%=      5-min Rain = 0
KMUS 140735Z 15014KT M02/M03 A3025 RMK A01 T10211025  RH  097%=      5-min Rain = 0
KMUS 140740Z 14013KT M02/M03 A3025 RMK A01 T10211026  RH  097%=      5-min Rain = 0
KMUS 140745Z 14013KT M02/M03 A3025 RMK A01 T10221026  RH  098%=      5-min Rain = 0
KMUS 140750Z 15012KT M02/M03 A3025 RMK A01 T10221026  RH  098%=      5-min Rain = 0
KMUS 140755Z 15015G20KT M02/M03 A3025 RMK A01 T10221026  RH  097%=      5-min Rain = 0
KMUS 140800Z 15014KT M02/M03 A3025 RMK A01 T10221027  RH  098%=      5-min Rain = 0
KMUS 140805Z 15014G19KT M02/M03 A3025 RMK A01 T10231027  RH  098%=      5-min Rain = 0
KMUS 140810Z 15014KT M02/M03 A3025 RMK A01 T10231027  RH  098%=      5-min Rain = 0
KMUS 140815Z 15013G18KT M02/M03 A3025 RMK A01 T10231027  RH  098%=      5-min Rain = 0
KMUS 140820Z 14011KT M02/M03 A3025 RMK A01 T10231027  RH  098%=      5-min Rain = 0
KMUS 140825Z 14011KT M02/M03 A3025 RMK A01 T10231027  RH  098%=      5-min Rain = 0
KMUS 140830Z 14011KT M02/M03 A3025 RMK A01 T10231027  RH  098%=      5-min Rain = 0
KMUS 140835Z 15010KT M02/M03 A3026 RMK A01 T10231027  RH  098%=      5-min Rain = 0
KMUS 140840Z 15010KT M02/M03 A3025 RMK A01 T10231027  RH  098%=      5-min Rain = 0
KMUS 140845Z 15012KT M02/M03 A3025 RMK A01 T10241028  RH  097%=      5-min Rain = 0
KMUS 140850Z 14012KT M02/M03 A3025 RMK A01 T10241028  RH  097%=      5-min Rain = 0
KMUS 140855Z 14010KT M02/M03 A3026 RMK A01 T10241029  RH  097%=      5-min Rain = 0
KMUS 140900Z 14011KT M02/M03 A3025 RMK A01 T10241029  RH  097%=      5-min Rain = 0
KMUS 140905Z 14010KT M02/M03 A3026 RMK A01 T10241028  RH  097%=      5-min Rain = 0
KMUS 140910Z 14010KT M02/M03 A3025 RMK A01 T10241029  RH  097%=      5-min Rain = 0
KMUS 140915Z 14011KT M03/M03 A3025 RMK A01 T10251029  RH  097%=      5-min Rain = 0
KMUS 140920Z 15010KT M03/M03 A3025 RMK A01 T10251029  RH  098%=      5-min Rain = 0
KMUS 140925Z 14011KT M03/M03 A3025 RMK A01 T10251029  RH  098%=      5-min Rain = 0
KMUS 140930Z 15011KT M03/M03 A3025 RMK A01 T10251029  RH  098%=      5-min Rain = 0
KMUS 140935Z 15011KT M03/M03 A3025 RMK A01 T10261029  RH  098%=      5-min Rain = 0
KMUS 140940Z 15010KT M03/M03 A3025 RMK A01 T10261029  RH  098%=      5-min Rain = 0
KMUS 140945Z 15010KT M03/M03 A3025 RMK A01 T10251028  RH  098%=      5-min Rain = 0
KMUS 140950Z 15009KT M03/M03 A3025 RMK A01 T10251028  RH  099%=      5-min Rain = 0
KMUS 140955Z 15010KT M03/M03 A3025 RMK A01 T10251028  RH  099%=      5-min Rain = 0
KMUS 141000Z 16010KT M03/M03 A3024 RMK A01 T10251028  RH  099%=      5-min Rain = 0
KMUS 141005Z 16010KT M03/M03 A3024 RMK A01 T10251028  RH  099%=      5-min Rain = 0
KMUS 141010Z 16010KT M03/M03 A3024 RMK A01 T10251027  RH  099%=      5-min Rain = 0
KMUS 141015Z 15009KT M03/M03 A3024 RMK A01 T10251027  RH  099%=      5-min Rain = 0
KMUS 141020Z 15008KT M03/M03 A3024 RMK A01 T10251028  RH  099%=      5-min Rain = 0
KMUS 141025Z 14011KT M03/M03 A3024 RMK A01 T10261029  RH  099%=      5-min Rain = 0
KMUS 141030Z 14010KT M03/M03 A3024 RMK A01 T10271030  RH  099%=      5-min Rain = 0
KMUS 141035Z 15010KT M03/M03 A3024 RMK A01 T10281030  RH  099%=      5-min Rain = 0
KMUS 141040Z 15011KT M03/M03 A3024 RMK A01 T10281031  RH  099%=      5-min Rain = 0
KMUS 141045Z 14011KT M03/M03 A3024 RMK A01 T10281031  RH  099%=      5-min Rain = 0
KMUS 141050Z 15011KT M03/M03 A3024 RMK A01 T10281031  RH  099%=      5-min Rain = 0
KMUS 141055Z 15009KT M03/M03 A3024 RMK A01 T10281030  RH  099%=      5-min Rain = 0
KMUS 141100Z 15010KT M03/M03 A3024 RMK A01 T10291031  RH  099%=      5-min Rain = 0
KMUS 141105Z 15009KT M03/M03 A3024 RMK A01 T10291031  RH  099%=      5-min Rain = 0
KMUS 141110Z 15008KT M03/M03 A3024 RMK A01 T10291030  RH  099%=      5-min Rain = 0
KMUS 141115Z 15009KT M03/M03 A3024 RMK A01 T10291030  RH  099%=      5-min Rain = 0
KMUS 141120Z 15010KT M03/M03 A3024 RMK A01 T10291030  RH  100%=      5-min Rain = 0
KMUS 141125Z 16011KT M03/M03 A3024 RMK A01 T10291030  RH  100%=      5-min Rain = 0
KMUS 141130Z 16010KT M03/M03 A3024 RMK A01 T10291030  RH  100%=      5-min Rain = 0
KMUS 141135Z 16010G15KT M03/M03 A3024 RMK A01 T10281029  RH  100%=      5-min Rain = 0
KMUS 141140Z 16010G15KT M03/M03 A3024 RMK A01 T10281029  RH  100%=      5-min Rain = 0
KMUS 141145Z 17012KT M03/M03 A3024 RMK A01 T10281029  RH  100%=      5-min Rain = 0
KMUS 141150Z 16010KT M03/M03 A3024 RMK A01 T10281029  RH  100%=      5-min Rain = 0
KMUS 141155Z 16010KT M03/M03 A3024 RMK A01 T10281029  RH  100%=      5-min Rain = 0
KMUS 141200Z 17010KT M03/M03 A3024 RMK A01 T10281029  RH  100%=      5-min Rain = 0
KMUS 141205Z 17010KT M03/M03 A3024 RMK A01 T10271028  RH  100%=      5-min Rain = 0
KMUS 141210Z 17010KT M03/M03 A3024 RMK A01 T10261027  RH  100%=      5-min Rain = 0
KMUS 141215Z 17012KT M03/M03 A3024 RMK A01 T10261027  RH  100%=      5-min Rain = 0
KMUS 141220Z 17011KT M03/M03 A3024 RMK A01 T10261027  RH  100%=      5-min Rain = 0
KMUS 141225Z 17010KT M03/M03 A3024 RMK A01 T10251026  RH  100%=      5-min Rain = 0
KMUS 141230Z 17010G16KT M03/M03 A3024 RMK A01 T10251026  RH  100%=      5-min Rain = 0
KMUS 141235Z 18012KT M03/M03 A3024 RMK A01 T10251026  RH  100%=      5-min Rain = 0
KMUS 141240Z 18011G17KT M03/M03 A3024 RMK A01 T10251026  RH  100%=      5-min Rain = 0
KMUS 141245Z 17011KT M03/M03 A3024 RMK A01 T10251026  RH  100%=      5-min Rain = 0
KMUS 141250Z 17012KT M03/M03 A3024 RMK A01 T10251026  RH  100%=      5-min Rain = 0
KMUS 141255Z 17011KT M03/M03 A3024 RMK A01 T10251026  RH  100%=      5-min Rain = 0
KMUS 141300Z 17009KT M02/M03 A3024 RMK A01 T10241025  RH  100%=      5-min Rain = 0
KMUS 141305Z 18011G16KT M02/M03 A3024 RMK A01 T10241025  RH  100%=      5-min Rain = 0
KMUS 141310Z 17011G16KT M02/M03 A3025 RMK A01 T10241025  RH  100%=      5-min Rain = 0
KMUS 141315Z 18012G17KT M02/M02 A3025 RMK A01 T10231024  RH  100%=      5-min Rain = 0
KMUS 141320Z 18012KT M02/M02 A3025 RMK A01 T10231024  RH  100%=      5-min Rain = 0
KMUS 141325Z 17011KT M02/M02 A3025 RMK A01 T10231024  RH  100%=      5-min Rain = 0
KMUS 141330Z 18013G18KT M02/M02 A3025 RMK A01 T10231024  RH  100%=      5-min Rain = 0
KMUS 141335Z 19013KT M02/M02 A3025 RMK A01 T10231024  RH  100%=      5-min Rain = 0
KMUS 141340Z 18011KT M02/M02 A3026 RMK A01 T10221023  RH  100%=      5-min Rain = 0
KMUS 141345Z 18012KT M02/M02 A3026 RMK A01 T10221023  RH  100%=      5-min Rain = 0
KMUS 141350Z 18012KT M02/M02 A3026 RMK A01 T10231024  RH  100%=      5-min Rain = 0
KMUS 141355Z 18012KT M02/M02 A3026 RMK A01 T10221023  RH  100%=      5-min Rain = 0
KMUS 141400Z 18012KT M02/M02 A3026 RMK A01 T10221023  RH  100%=      5-min Rain = 0
KMUS 141405Z 18010KT M02/M02 A3026 RMK A01 T10221023  RH  100%=      5-min Rain = 0
KMUS 141410Z 18009KT M02/M02 A3026 RMK A01 T10211022  RH  100%=      5-min Rain = 0
KMUS 141415Z 18011G16KT M02/M02 A3026 RMK A01 T10211022  RH  100%=      5-min Rain = 0
KMUS 141420Z 18011KT M02/M02 A3026 RMK A01 T10211022  RH  100%=      5-min Rain = 0
KMUS 141425Z 18012KT M02/M02 A3026 RMK A01 T10211022  RH  100%=      5-min Rain = 0
KMUS 141430Z 18011KT M02/M02 A3026 RMK A01 T10211022  RH  100%=      5-min Rain = 0
KMUS 141435Z 18009KT M02/M02 A3026 RMK A01 T10201021  RH  100%=      5-min Rain = 0
KMUS 141440Z 19012KT M02/M02 A3026 RMK A01 T10201021  RH  100%=      5-min Rain = 0
KMUS 141445Z 19009KT M02/M02 A3026 RMK A01 T10191021  RH  100%=      5-min Rain = 0
KMUS 141450Z 18012KT M02/M02 A3026 RMK A01 T10201021  RH  100%=      5-min Rain = 0
KMUS 141455Z 19010G15KT M02/M02 A3026 RMK A01 T10191020  RH  100%=      5-min Rain = 0
KMUS 141500Z 19010KT M02/M02 A3026 RMK A01 T10191020  RH  100%=      5-min Rain = 0
KMUS 141505Z 19011KT M02/M02 A3026 RMK A01 T10191020  RH  100%=      5-min Rain = 0
KMUS 141510Z 19012KT M02/M02 A3026 RMK A01 T10191020  RH  100%=      5-min Rain = 0
KMUS 141515Z 19011KT M02/M02 A3026 RMK A01 T10181020  RH  100%=      5-min Rain = 0
KMUS 141520Z 19011KT M02/M02 A3026 RMK A01 T10171019  RH  100%=      5-min Rain = 0
KMUS 141525Z 19011G16KT M02/M02 A3026 RMK A01 T10161017  RH  100%=      5-min Rain = 0
KMUS 141530Z 19011KT M02/M02 A3026 RMK A01 T10161017  RH  100%=      5-min Rain = 0
KMUS 141535Z 20012KT M02/M02 A3026 RMK A01 T10161017  RH  100%=      5-min Rain = 0
KMUS 141540Z 20011KT M01/M02 A3026 RMK A01 T10141015  RH  100%=      5-min Rain = 0
KMUS 141545Z 20012KT M01/M02 A3026 RMK A01 T10131015  RH  100%=      5-min Rain = 0
KMUS 141550Z 19010KT M01/M01 A3026 RMK A01 T10121014  RH  100%=      5-min Rain = 0
KMUS 141555Z 20012KT M01/M01 A3026 RMK A01 T10111013  RH  100%=      5-min Rain = 0
KMUS 141600Z 20011KT M01/M01 A3026 RMK A01 T10111012  RH  100%=      5-min Rain = 0
KMUS 141605Z 20013KT M01/M01 A3026 RMK A01 T10101011  RH  100%=      5-min Rain = 0
KMUS 141610Z 20012G17KT M01/M01 A3026 RMK A01 T10091011  RH  100%=      5-min Rain = 0
KMUS 141615Z 20013KT M01/M01 A3025 RMK A01 T10091010  RH  100%=      5-min Rain = 0
KMUS 141620Z 20011KT M01/M01 A3025 RMK A01 T10071009  RH  100%=      5-min Rain = 0
KMUS 141625Z 19012KT M01/M01 A3025 RMK A01 T10071008  RH  100%=      5-min Rain = 0
KMUS 141630Z 20012KT M01/M01 A3025 RMK A01 T10061008  RH  100%=      5-min Rain = 0
KMUS 141635Z 21012KT M01/M01 A3025 RMK A01 T10051007  RH  100%=      5-min Rain = 0
KMUS 141640Z 20011KT M00/M01 A3025 RMK A01 T10041006  RH  100%=      5-min Rain = 0
KMUS 141645Z 20011KT M00/M01 A3025 RMK A01 T10041006  RH  099%=      5-min Rain = 0
KMUS 141650Z 20011KT M00/M01 A3025 RMK A01 T10041006  RH  099%=      5-min Rain = 0
KMUS 141655Z 20011KT M00/M01 A3025 RMK A01 T10031005  RH  099%=      5-min Rain = 0
KMUS 141700Z 19011KT M00/M01 A3025 RMK A01 T10031005  RH  099%=      5-min Rain = 0
KMUS 141705Z 20011KT M00/M01 A3025 RMK A01 T10021005  RH  099%=      5-min Rain = 0
KMUS 141710Z 19011G16KT M00/M00 A3025 RMK A01 T10011004  RH  099%=      5-min Rain = 0
KMUS 141715Z 19012KT M00/M01 A3025 RMK A01 T10011005  RH  098%=      5-min Rain = 0
KMUS 141720Z 20011KT 00/M00 A3025 RMK A01 T00011004  RH  098%=      5-min Rain = 0
KMUS 141725Z 20011KT 00/M00 A3024 RMK A01 T00011004  RH  097%=      5-min Rain = 0
KMUS 141730Z 20011G16KT 00/M00 A3024 RMK A01 T00021004  RH  097%=      5-min Rain = 0
KMUS 141735Z 20013KT 00/M00 A3024 RMK A01 T00021003  RH  097%=      5-min Rain = 0
KMUS 141740Z 19012G17KT 00/M00 A3024 RMK A01 T00031003  RH  097%=      5-min Rain = 0
KMUS 141745Z 21012KT 01/M00 A3024 RMK A01 T00051002  RH  096%=      5-min Rain = 0
KMUS 141750Z 20013KT 01/M00 A3024 RMK A01 T00061002  RH  096%=      5-min Rain = 0
KMUS 141755Z 20012KT 01/M00 A3024 RMK A01 T00061002  RH  095%=      5-min Rain = 0
KMUS 141800Z 20012KT 01/M00 A3024 RMK A01 T00071002  RH  095%=      5-min Rain = 0
KMUS 141805Z 20011G16KT 01/00 A3023 RMK A01 T00090001  RH  095%=      5-min Rain = 0
KMUS 141810Z 20012KT 01/00 A3023 RMK A01 T00100000  RH  094%=      5-min Rain = 0
KMUS 141815Z 21012KT 01/00 A3023 RMK A01 T00120001  RH  094%=      5-min Rain = 0
KMUS 141820Z 21013KT 01/00 A3023 RMK A01 T00120000  RH  093%=      5-min Rain = 0
KMUS 141825Z 21013KT 01/00 A3023 RMK A01 T00140001  RH  092%=      5-min Rain = 0
KMUS 141830Z 20012G17KT 01/00 A3023 RMK A01 T00140001  RH  092%=      5-min Rain = 0
KMUS 141835Z 21014KT 02/00 A3022 RMK A01 T00150001  RH  092%=      5-min Rain = 0
KMUS 141840Z 20014KT 01/M00 A3022 RMK A01 T00141001  RH  091%=      5-min Rain = 0
KMUS 141845Z 20012KT 02/00 A3021 RMK A01 T00160001  RH  091%=      5-min Rain = 0
KMUS 141850Z 20012KT 02/00 A3021 RMK A01 T00160001  RH  091%=      5-min Rain = 0
KMUS 141855Z 19011KT 02/00 A3021 RMK A01 T00160002  RH  091%=      5-min Rain = 0
KMUS 141900Z 20010G15KT 02/00 A3021 RMK A01 T00170003  RH  092%=      5-min Rain = 0
KMUS 141905Z 21012KT 02/00 A3021 RMK A01 T00190003  RH  091%=      5-min Rain = 0
KMUS 141910Z 22011KT 02/01 A302 RMK A01 T00200005  RH  091%=      5-min Rain = 0
KMUS 141915Z 21012KT 02/00 A302 RMK A01 T00210004  RH  089%=      5-min Rain = 0
KMUS 141920Z 20012G18KT 02/00 A3019 RMK A01 T00200004  RH  090%=      5-min Rain = 0
KMUS 141925Z 20012KT 02/01 A3019 RMK A01 T00220005  RH  090%=      5-min Rain = 0
KMUS 141930Z 20013KT 02/01 A3019 RMK A01 T00220005  RH  089%=      5-min Rain = 0
KMUS 141935Z 20012G17KT 02/01 A3018 RMK A01 T00240007  RH  090%=      5-min Rain = 0
KMUS 141940Z 20013KT 03/01 A3018 RMK A01 T00250007  RH  089%=      5-min Rain = 0
KMUS 141945Z 22014KT 03/01 A3018 RMK A01 T00260007  RH  088%=      5-min Rain = 0
KMUS 141950Z 20013KT 03/01 A3017 RMK A01 T00280008  RH  088%=      5-min Rain = 0
KMUS 141955Z 20012KT 03/01 A3016 RMK A01 T00300009  RH  088%=      5-min Rain = 0
KMUS 142000Z 20011KT 03/01 A3016 RMK A01 T00310009  RH  087%=      5-min Rain = 0
KMUS 142005Z 20013KT 03/01 A3016 RMK A01 T00320010  RH  087%=      5-min Rain = 0
KMUS 142010Z 20012KT 03/01 A3016 RMK A01 T00320010  RH  087%=      5-min Rain = 0
KMUS 142015Z 20013KT 03/01 A3015 RMK A01 T00330010  RH  086%=      5-min Rain = 0
KMUS 142020Z 21011KT 04/01 A3015 RMK A01 T00360012  RH  085%=      5-min Rain = 0
KMUS 142025Z 20012G17KT 04/01 A3015 RMK A01 T00370011  RH  084%=      5-min Rain = 0
KMUS 142030Z 20012KT 04/01 A3014 RMK A01 T00390012  RH  084%=      5-min Rain = 0
KMUS 142035Z 20012KT 04/01 A3014 RMK A01 T00410013  RH  083%=      5-min Rain = 0
KMUS 142040Z 19011KT 04/01 A3014 RMK A01 T00440014  RH  082%=      5-min Rain = 0
KMUS 142045Z 19012KT 05/01 A3014 RMK A01 T00450014  RH  081%=      5-min Rain = 0
KMUS 142050Z 19012KT 05/01 A3013 RMK A01 T00450014  RH  081%=      5-min Rain = 0
KMUS 142055Z 19011G17KT 05/01 A3013 RMK A01 T00460014  RH  081%=      5-min Rain = 0
KMUS 142100Z 18013KT 05/01 A3013 RMK A01 T00450014  RH  081%=      5-min Rain = 0
KMUS 142105Z 19013KT 04/01 A3013 RMK A01 T00440014  RH  082%=      5-min Rain = 0
KMUS 142110Z 20014KT 04/01 A3013 RMK A01 T00440014  RH  082%=      5-min Rain = 0
KMUS 142115Z 20012KT 04/01 A3013 RMK A01 T00430013  RH  082%=      5-min Rain = 0
KMUS 142120Z 18013KT 04/01 A3012 RMK A01 T00430014  RH  082%=      5-min Rain = 0
KMUS 142125Z 18012KT 04/02 A3012 RMK A01 T00430015  RH  083%=      5-min Rain = 0
KMUS 142130Z 18014KT 05/02 A3012 RMK A01 T00460016  RH  082%=      5-min Rain = 0
KMUS 142135Z 19013KT 05/02 A3012 RMK A01 T00450016  RH  083%=      5-min Rain = 0
KMUS 142140Z 19014KT 05/02 A3012 RMK A01 T00460016  RH  082%=      5-min Rain = 0
KMUS 142145Z 18014KT 04/01 A3012 RMK A01 T00430014  RH  083%=      5-min Rain = 0
KMUS 142150Z 18014KT 04/02 A3012 RMK A01 T00420015  RH  084%=      5-min Rain = 0
KMUS 142155Z 18013KT 04/01 A3012 RMK A01 T00420014  RH  083%=      5-min Rain = 0
KMUS 142200Z 17012G17KT 04/02 A3011 RMK A01 T00410015  RH  084%=      5-min Rain = 0
KMUS 142205Z 18014G19KT 04/01 A3011 RMK A01 T00410014  RH  084%=      5-min Rain = 0
KMUS 142210Z 18013KT 04/01 A3011 RMK A01 T00410014  RH  084%=      5-min Rain = 0
KMUS 142215Z 18013KT 04/01 A3011 RMK A01 T00410014  RH  084%=      5-min Rain = 0
KMUS 142220Z 17015KT 04/02 A3011 RMK A01 T00430016  RH  084%=      5-min Rain = 0
KMUS 142225Z 18014G19KT 05/02 A3011 RMK A01 T00460016  RH  082%=      5-min Rain = 0
KMUS 142230Z 18013G19KT 05/02 A3011 RMK A01 T00470017  RH  082%=      5-min Rain = 0
KMUS 142235Z 18016G21KT 05/02 A3011 RMK A01 T00480015  RH  080%=      5-min Rain = 0
KMUS 142240Z 19015G20KT 04/01 A301 RMK A01 T00440014  RH  082%=      5-min Rain = 0
KMUS 142245Z 17014G19KT 05/02 A301 RMK A01 T00470018  RH  082%=      5-min Rain = 0
KMUS 142250Z 18014G19KT 05/01 A301 RMK A01 T00460014  RH  081%=      5-min Rain = 0
KMUS 142255Z 18013KT 04/01 A301 RMK A01 T00410014  RH  084%=      5-min Rain = 0
KMUS 142300Z 18013KT 04/02 A301 RMK A01 T00400016  RH  085%=      5-min Rain = 0
KMUS 142305Z 17013G18KT 04/02 A301 RMK A01 T00420016  RH  085%=      5-min Rain = 0
KMUS 142310Z 17013KT 04/02 A301 RMK A01 T00410015  RH  084%=      5-min Rain = 0
KMUS 142315Z 16014KT 04/02 A301 RMK A01 T00400015  RH  085%=      5-min Rain = 0
KMUS 142320Z 17013G18KT 04/02 A301 RMK A01 T00400016  RH  085%=      5-min Rain = 0
KMUS 142325Z 17012KT 04/01 A301 RMK A01 T00390014  RH  085%=      5-min Rain = 0
KMUS 142330Z 17014KT 04/02 A301 RMK A01 T00400015  RH  085%=      5-min Rain = 0
KMUS 142335Z 17012G17KT 04/02 A301 RMK A01 T00420016  RH  084%=      5-min Rain = 0
KMUS 142340Z 18011G17KT 04/01 A301 RMK A01 T00390014  RH  084%=      5-min Rain = 0
KMUS 142345Z 17013KT 04/01 A301 RMK A01 T00360012  RH  085%=      5-min Rain = 0
KMUS 142350Z 17013KT 03/01 A301 RMK A01 T00330011  RH  087%=      5-min Rain = 0
KMUS 142355Z 18014KT 03/01 A301 RMK A01 T00330012  RH  087%=      5-min Rain = 0
KMUS 150000Z 17012G17KT 03/01 A301 RMK A01 T00330012  RH  087%=      5-min Rain = 0
KMUS 150005Z 17011G16KT 03/01 A301 RMK A01 T00320011  RH  087%=      5-min Rain = 0
KMUS 150010Z 17013KT 03/01 A301 RMK A01 T00290010  RH  088%=      5-min Rain = 0
KMUS 150015Z 17013KT 03/01 A301 RMK A01 T00280010  RH  090%=      5-min Rain = 0
KMUS 150020Z 17012G17KT 03/01 A301 RMK A01 T00280011  RH  090%=      5-min Rain = 0
KMUS 150025Z 17012KT 03/01 A301 RMK A01 T00270011  RH  090%=      5-min Rain = 0
KMUS 150030Z 17012KT 03/01 A301 RMK A01 T00270010  RH  090%=      5-min Rain = 0
KMUS 150035Z 17011KT 03/01 A301 RMK A01 T00260009  RH  090%=      5-min Rain = 0
KMUS 150040Z 17010KT 02/01 A3011 RMK A01 T00240008  RH  091%=      5-min Rain = 0
KMUS 150045Z 17010KT 02/01 A3011 RMK A01 T00230009  RH  092%=      5-min Rain = 0
KMUS 150050Z 16009KT 02/01 A301 RMK A01 T00210008  RH  092%=      5-min Rain = 0
KMUS 150055Z 16009KT 02/01 A301 RMK A01 T00200008  RH  093%=      5-min Rain = 0
KMUS 150100Z 16009KT 02/01 A301 RMK A01 T00200008  RH  093%=      5-min Rain = 0
KMUS 150105Z 16009KT 02/01 A301 RMK A01 T00200007  RH  093%=      5-min Rain = 0
KMUS 150110Z 16009KT 02/01 A301 RMK A01 T00180007  RH  093%=      5-min Rain = 0
KMUS 150115Z 15008KT 02/01 A3011 RMK A01 T00170005  RH  093%=      5-min Rain = 0
KMUS 150120Z 15007KT 02/00 A3011 RMK A01 T00150004  RH  093%=      5-min Rain = 0
KMUS 150125Z 14004KT 01/00 A3011 RMK A01 T00140003  RH  094%=      5-min Rain = 0
KMUS 150130Z 14004KT 01/00 A3012 RMK A01 T00120002  RH  094%=      5-min Rain = 0
KMUS 150135Z 15005KT 01/00 A3011 RMK A01 T00110001  RH  094%=      5-min Rain = 0
KMUS 150140Z 15007KT 01/00 A3011 RMK A01 T00110001  RH  095%=      5-min Rain = 0
KMUS 150145Z 15008KT 01/00 A3011 RMK A01 T00110002  RH  095%=      5-min Rain = 0
KMUS 150150Z 15008KT 01/00 A3011 RMK A01 T00110002  RH  095%=      5-min Rain = 0
KMUS 150155Z 14007KT 01/00 A3011 RMK A01 T00100002  RH  095%=      5-min Rain = 0
KMUS 150200Z 14006KT 01/00 A3011 RMK A01 T00090001  RH  095%=      5-min Rain = 0
KMUS 150205Z 14006KT 01/00 A3011 RMK A01 T000800-0  RH  095%=      5-min Rain = 0
KMUS 150210Z 14006KT 01/M00 A3011 RMK A01 T00071001  RH  096%=      5-min Rain = 0
KMUS 150215Z 15006KT 01/00 A3011 RMK A01 T00070000  RH  096%=      5-min Rain = 0
KMUS 150220Z 15006KT 01/00 A3012 RMK A01 T00070000  RH  096%=      5-min Rain = 0
KMUS 150225Z 15006KT 01/00 A3012 RMK A01 T000700-0  RH  096%=      5-min Rain = 0
KMUS 150230Z 15007KT 01/M00 A3012 RMK A01 T00051001  RH  096%=      5-min Rain = 0
KMUS 150235Z 15008KT 01/M00 A3012 RMK A01 T00051001  RH  097%=      5-min Rain = 0
KMUS 150240Z 16010KT 01/M00 A3012 RMK A01 T00051001  RH  097%=      5-min Rain = 0
KMUS 150245Z 15010KT 01/00 A3012 RMK A01 T00060001  RH  097%=      5-min Rain = 0
KMUS 150250Z 16010KT 01/00 A3012 RMK A01 T00080002  RH  098%=      5-min Rain = 0
KMUS 150255Z 16010KT 01/00 A3012 RMK A01 T00080003  RH  098%=      5-min Rain = 0
KMUS 150300Z 16010KT 01/00 A3012 RMK A01 T00080003  RH  098%=      5-min Rain = 0
KMUS 150305Z 17008KT 01/00 A3012 RMK A01 T00080003  RH  098%=      5-min Rain = 0
KMUS 150310Z 17007KT 01/00 A3012 RMK A01 T00070002  RH  098%=      5-min Rain = 0
KMUS 150315Z 17007KT 01/00 A3012 RMK A01 T00060001  RH  098%=      5-min Rain = 0
KMUS 150320Z 17006KT 01/00 A3012 RMK A01 T00050000  RH  098%=      5-min Rain = 0
KMUS 150325Z 17007KT 00/00 A3012 RMK A01 T000400-0  RH  098%=      5-min Rain = 0
KMUS 150330Z 17007KT 00/M00 A3012 RMK A01 T00041001  RH  098%=      5-min Rain = 0
KMUS 150335Z 17008KT 00/00 A3011 RMK A01 T00040000  RH  098%=      5-min Rain = 0
KMUS 150340Z 18007KT 01/00 A3012 RMK A01 T00050001  RH  098%=      5-min Rain = 0
KMUS 150345Z 19007KT 01/00 A3012 RMK A01 T00050001  RH  098%=      5-min Rain = 0
KMUS 150350Z 20006KT 01/00 A3012 RMK A01 T00050000  RH  098%=      5-min Rain = 0
KMUS 150355Z 21004KT 00/M00 A3012 RMK A01 T00041002  RH  098%=      5-min Rain = 0
KMUS 150400Z 24004KT 00/M01 A3012 RMK A01 T00011005  RH  097%=      5-min Rain = 0
KMUS 150405Z 22003KT M00/M01 A3011 RMK A01 T10011006  RH  098%=      5-min Rain = 0
KMUS 150410Z 20005KT M00/M01 A3011 RMK A01 T10021007  RH  098%=      5-min Rain = 0
KMUS 150415Z 19007KT M00/M01 A3011 RMK A01 T10021006  RH  098%=      5-min Rain = 0
KMUS 150420Z 20007KT 00/M00 A3011 RMK A01 T00011003  RH  098%=      5-min Rain = 0
KMUS 150425Z 21006G11KT 00/00 A3011 RMK A01 T000400-0  RH  098%=      5-min Rain = 0
KMUS 150430Z 26005KT 00/M00 A3011 RMK A01 T00041001  RH  098%=      5-min Rain = 0
KMUS 150435Z 30005KT 00/01 A3011 RMK A01 T000000-6  RH  097%=      5-min Rain = 0
KMUS 150440Z 29006KT M01/M01 A3011 RMK A01 T10061011  RH  097%=      5-min Rain = 0
KMUS 150445Z 24006KT M00/M01 A3011 RMK A01 T10031007  RH  098%=      5-min Rain = 0
KMUS 150450Z 21007KT 00/00 A3011 RMK A01 T00-000-4  RH  099%=      5-min Rain = 0
KMUS 150455Z 23004KT 00/M00 A3011 RMK A01 T00011003  RH  098%=      5-min Rain = 0
KMUS 150500Z 31005KT M00/M01 A3011 RMK A01 T10031009  RH  097%=      5-min Rain = 0
KMUS 150505Z 30008KT M01/M02 A3012 RMK A01 T10101016  RH  097%=      5-min Rain = 0
KMUS 150510Z 28007KT M01/M01 A3011 RMK A01 T10091012  RH  099%=      5-min Rain = 0
KMUS 150515Z 25007KT M01/M01 A3011 RMK A01 T10051008  RH  099%=      5-min Rain = 0
KMUS 150520Z 23007KT M00/M00 A3011 RMK A01 T10021004  RH  099%=      5-min Rain = 0
KMUS 150525Z 23007KT 00/00 A301 RMK A01 T000000-3  RH  099%=      5-min Rain = 0
KMUS 150530Z 22006KT 00/M00 A301 RMK A01 T00021001  RH  099%=      5-min Rain = 0
KMUS 150535Z 24005KT 00/M00 A301 RMK A01 T00031001  RH  098%=      5-min Rain = 0
KMUS 150540Z 29004KT 00/01 A301 RMK A01 T000000-5  RH  097%=      5-min Rain = 0
KMUS 150545Z 31004KT M01/M01 A301 RMK A01 T10051010  RH  097%=      5-min Rain = 0
KMUS 150550Z 30005KT M01/M01 A301 RMK A01 T10061010  RH  098%=      5-min Rain = 0
KMUS 150555Z 29005KT M00/M01 A301 RMK A01 T10021005  RH  099%=      5-min Rain = 0

Page generated in 0.0265 seconds.